Pembroke Lakes, Florida
Current Conditions -  °F | °C
As of 9:29 AM on Sunday 23 Nov 2014 (Local Time) from KHWO Reporting Station
Broken Clouds Broken Clouds  
Wind Chill: 82°   Ceiling: 2100
Heat Index: 87°   Visibility: 10mi
Dew Point: 72°   Wind: 14mph
Humidity: 71%   Direction: 140°SE
Pressure: 30.04"   Gusts: 23mph
Location:  26.026°N, 80.2963°W
Report Text: KHWO 231429Z 14012G20KT 10SM BKN021 BKN027 28/22 A3004 RMK AO2 T02780222
Loading
Personal Weather Stations






























Interactive Weather Map New forecast layout! Learn more

10-Day Weather Forecast

Advertisements
Track Severe Weather on mobile